Time;durP1;ratioP1;P1;durP2;ratioP2;P2;SDS_P1;SDS_P2;PMS_P1;PMS_P2;Temp;Humidity;BMP_temperature;BMP_pressure;BME280_temperature;BME280_humidity;BME280_pressure;Samples;Min_cycle;Max_cycle;Signal;HPM_P1;HPM_P2
2022/06/22 00:01:41;;;;;;;11.07;3.85;;;;;;;14.61;78.20;101172.44;5010687;28;20053;-71
2022/06/22 00:04:11;;;;;;;8.45;4.30;;;;;;;14.52;77.83;101160.25;5031895;28;20526;-72
2022/06/22 00:06:39;;;;;;;7.72;4.50;;;;;;;14.54;78.71;101163.59;5032783;28;20036;-71
2022/06/22 00:09:06;;;;;;;11.45;4.32;;;;;;;14.54;78.60;101155.41;5032676;28;20112;-72
2022/06/22 00:11:33;;;;;;;9.60;4.88;;;;;;;14.52;79.27;101154.81;5031132;28;20036;-72
2022/06/22 00:14:02;;;;;;;6.70;4.60;;;;;;;14.47;79.97;101152.00;5015408;28;20036;-71
2022/06/22 00:16:33;;;;;;;8.63;5.43;;;;;;;14.48;81.17;101156.41;5032347;28;20037;-72
2022/06/22 00:18:59;;;;;;;10.70;5.50;;;;;;;14.54;82.19;101147.25;5032568;28;20473;-72
2022/06/22 00:21:33;;;;;;;13.82;5.72;;;;;;;14.54;82.84;101141.81;5032294;28;20037;-72
2022/06/22 00:24:02;;;;;;;11.07;6.07;;;;;;;14.64;82.11;101139.28;5015878;28;20384;-72
2022/06/22 00:26:34;;;;;;;10.20;5.90;;;;;;;14.67;82.50;101148.84;5032242;28;20091;-72
2022/06/22 00:29:02;;;;;;;9.80;5.68;;;;;;;14.73;81.94;101152.50;5032411;28;20026;-72
2022/06/22 00:32:01;;;;;;;9.43;6.00;;;;;;;14.79;80.46;101155.06;5032198;28;20059;-71
2022/06/22 00:34:33;;;;;;;10.88;5.80;;;;;;;14.67;83.14;101149.69;4982206;28;20366;-71
2022/06/22 00:37:14;;;;;;;11.80;6.13;;;;;;;14.70;82.68;101143.75;5016743;28;20104;-72
2022/06/22 00:39:48;;;;;;;15.82;7.00;;;;;;;14.67;84.82;101133.34;5016546;28;20049;-72
2022/06/22 00:42:32;;;;;;;9.70;6.65;;;;;;;14.63;84.29;101126.75;5025087;28;20053;-72
2022/06/22 00:45:01;;;;;;;11.38;6.70;;;;;;;14.68;85.62;101151.34;5016459;28;20117;-71
2022/06/22 00:47:28;;;;;;;10.93;6.10;;;;;;;14.73;86.01;101155.22;5016306;28;20473;-72
2022/06/22 00:49:59;;;;;;;10.25;6.60;;;;;;;14.70;86.36;101157.38;5016188;28;20393;-71
2022/06/22 00:52:33;;;;;;;9.25;6.25;;;;;;;14.65;86.52;101154.56;5020217;28;20121;-73
2022/06/22 00:54:59;;;;;;;11.70;6.68;;;;;;;14.65;86.59;101140.13;5036025;28;20030;-71
2022/06/22 00:57:32;;;;;;;13.00;6.40;;;;;;;14.62;87.79;101140.59;5035837;28;20067;-71
2022/06/22 01:00:13;;;;;;;9.20;6.47;;;;;;;14.65;88.26;101132.75;5036063;28;20103;-71
2022/06/22 01:02:47;;;;;;;11.95;6.95;;;;;;;14.62;88.68;101129.72;5030906;28;20068;-72
2022/06/22 01:05:31;;;;;;;9.07;6.43;;;;;;;14.57;88.61;101114.06;5016486;28;20061;-72
2022/06/22 01:08:24;;;;;;;10.10;6.65;;;;;;;14.67;87.51;101119.75;5015878;28;20392;-72
2022/06/22 01:10:52;;;;;;;10.25;6.50;;;;;;;14.64;89.13;101142.00;5013250;28;20397;-71
2022/06/22 01:13:46;;;;;;;13.13;6.85;;;;;;;14.71;87.39;101145.41;5015931;28;20038;-72
2022/06/22 01:16:29;;;;;;;12.07;6.63;;;;;;;14.68;88.46;101148.63;5027920;28;20124;-72
2022/06/22 01:19:21;;;;;;;8.25;6.70;;;;;;;14.63;89.41;101159.44;5035447;28;20033;-71
2022/06/22 01:22:03;;;;;;;10.77;6.75;;;;;;;14.63;89.77;101156.69;5017619;28;20384;-73
2022/06/22 01:24:48;;;;;;;8.70;6.03;;;;;;;14.59;90.25;101163.66;5016011;28;20026;-71
2022/06/22 01:27:21;;;;;;;10.65;6.03;;;;;;;14.50;92.09;101149.63;5016043;28;20041;-71
2022/06/22 01:29:59;;;;;;;9.98;6.47;;;;;;;14.51;91.44;101148.56;5015551;28;20030;-72
2022/06/22 01:32:28;;;;;;;13.48;7.00;;;;;;;14.48;92.42;101145.50;5018848;28;20068;-71
2022/06/22 01:35:00;;;;;;;13.40;7.32;;;;;;;14.40;93.73;101129.53;5017737;28;20037;-72
2022/06/22 01:37:31;;;;;;;13.30;7.15;;;;;;;14.41;94.04;101121.13;5035206;28;20484;-72
2022/06/22 01:40:15;;;;;;;13.53;7.33;;;;;;;14.35;94.32;101112.03;5035380;28;20056;-71
2022/06/22 01:43:04;;;;;;;13.80;7.13;;;;;;;14.38;93.54;101116.19;5028571;28;20477;-71
2022/06/22 01:45:39;;;;;;;16.02;7.85;;;;;;;14.30;96.56;101122.03;5014262;28;20026;-72
2022/06/22 01:48:30;;;;;;;10.45;7.68;;;;;;;14.32;94.96;101123.41;5015446;28;20030;-72
2022/06/22 01:51:08;;;;;;;12.07;7.35;;;;;;;14.34;96.07;101120.44;5014157;28;20417;-72
2022/06/22 01:53:39;;;;;;;12.57;7.57;;;;;;;14.36;96.88;101115.59;5014799;28;20473;-72
2022/06/22 01:56:08;;;;;;;;;;;;;;;14.48;90.42;101115.56;5014388;28;20385;-72
2022/06/22 01:59:08;;;;;;;13.70;7.68;;;;;;;14.36;95.52;101118.31;5015284;28;20012;-72
2022/06/22 02:01:45;;;;;;;16.67;8.50;;;;;;;14.30;97.29;101116.59;5027191;28;20439;-72
2022/06/22 02:04:23;;;;;;;14.18;8.30;;;;;;;14.24;98.42;101106.66;5017994;28;20131;-72
2022/06/22 02:10:05;;;;;;;16.48;8.00;;;;;;;14.18;99.78;101119.34;5032799;28;20179;-71
2022/06/22 02:12:37;;;;;;;16.70;8.82;;;;;;;14.09;100.00;101113.44;5030249;28;20029;-72
2022/06/22 02:15:27;;;;;;;14.85;8.13;;;;;;;14.12;100.00;101115.69;5013697;28;20060;-72
2022/06/22 02:17:54;;;;;;;14.07;8.45;;;;;;;14.16;100.00;101111.44;4993233;28;20128;-72
2022/06/22 02:20:19;;;;;;;11.73;8.18;;;;;;;14.22;99.89;101117.81;5014929;28;20033;-73
2022/06/22 02:22:51;;;;;;;14.80;8.10;;;;;;;14.11;100.00;101127.63;5021627;28;20032;-71
2022/06/22 02:25:19;;;;;;;16.35;8.73;;;;;;;14.07;100.00;101125.63;5014656;28;20338;-72
2022/06/22 02:27:44;;;;;;;14.07;8.15;;;;;;;14.13;100.00;101113.78;5014478;28;20037;-72
2022/06/22 02:30:10;;;;;;;13.15;8.90;;;;;;;14.07;100.00;101109.31;5032354;28;20041;-72
2022/06/22 02:32:41;;;;;;;13.23;8.13;;;;;;;14.08;100.00;101102.81;5028281;28;20113;-78
2022/06/22 02:35:10;;;;;;;14.05;8.20;;;;;;;14.13;100.00;101097.47;4996874;28;20117;-71
2022/06/22 02:37:55;;;;;;;14.32;8.43;;;;;;;14.11;100.00;101086.00;5014381;28;20050;-72
2022/06/22 02:40:26;;;;;;;17.65;8.63;;;;;;;14.08;100.00;101089.22;5013976;28;20466;-71
2022/06/22 02:45:37;;;;;;;11.05;8.07;;;;;;;14.15;100.00;101092.63;5033050;28;20037;-71
2022/06/22 02:48:11;;;;;;;15.95;8.93;;;;;;;14.12;100.00;101090.38;5033771;28;20385;-71
2022/06/22 02:50:49;;;;;;;18.08;9.23;;;;;;;14.11;100.00;101088.72;5033855;28;20386;-71
2022/06/22 02:53:22;;;;;;;14.30;8.75;;;;;;;14.07;100.00;101092.97;5006794;28;20034;-70
2022/06/22 02:55:48;;;;;;;12.93;8.80;;;;;;;14.10;100.00;101097.94;5013381;28;20057;-71
2022/06/22 02:58:25;;;;;;;16.52;8.73;;;;;;;14.07;100.00;101104.72;5014110;28;20473;-71
2022/06/22 03:00:50;;;;;;;15.40;9.02;;;;;;;14.06;100.00;101104.97;5014189;28;20022;-71
2022/06/22 03:03:18;;;;;;;12.88;8.95;;;;;;;14.05;100.00;101115.00;5042535;28;20033;-71
2022/06/22 03:05:48;;;;;;;12.02;8.73;;;;;;;14.06;100.00;101111.22;5033179;28;20041;-71
2022/06/22 03:08:15;;;;;;;17.40;8.55;;;;;;;14.06;100.00;101107.69;5033944;28;20036;-71
2022/06/22 03:10:45;;;;;;;12.40;8.95;;;;;;;13.95;100.00;101123.78;5033374;28;20029;-71
2022/06/22 03:13:24;;;;;;;14.27;8.10;;;;;;;13.94;100.00;101122.13;5032849;28;20029;-71
2022/06/22 03:15:50;;;;;;;15.85;9.27;;;;;;;13.88;100.00;101112.22;5030142;28;20034;-71
2022/06/22 03:18:24;;;;;;;13.77;8.77;;;;;;;13.87;100.00;101102.41;5033256;28;20100;-71
2022/06/22 03:21:02;;;;;;;13.07;9.00;;;;;;;13.83;100.00;101103.97;5032921;28;20025;-71
2022/06/22 03:24:02;;;;;;;24.58;9.38;;;;;;;13.89;100.00;101104.88;5032329;28;20036;-71
2022/06/22 03:26:34;;;;;;;16.00;9.65;;;;;;;13.83;100.00;101098.53;5032155;28;20025;-71
2022/06/22 03:29:10;;;;;;;15.68;9.32;;;;;;;13.77;100.00;101097.59;5033275;28;20041;-71
2022/06/22 03:31:42;;;;;;;14.95;9.65;;;;;;;13.77;100.00;101094.06;5032949;28;20034;-71
2022/06/22 03:34:15;;;;;;;14.38;9.23;;;;;;;13.75;100.00;101093.44;5017579;28;20037;-71
2022/06/22 03:36:53;;;;;;;12.77;9.75;;;;;;;13.76;100.00;101095.91;5013016;28;20046;-71
2022/06/22 03:39:22;;;;;;;17.40;9.55;;;;;;;13.65;100.00;101094.88;5024351;28;20033;-71
2022/06/22 03:41:55;;;;;;;13.45;10.30;;;;;;;13.63;100.00;101088.03;5032815;28;20025;-71
2022/06/22 03:44:29;;;;;;;14.10;9.95;;;;;;;13.67;100.00;101091.94;4998312;28;20428;-70
2022/06/22 03:47:02;;;;;;;14.95;10.07;;;;;;;13.61;100.00;101080.09;5012969;28;20034;-71
2022/06/22 03:49:37;;;;;;;15.80;10.40;;;;;;;13.57;100.00;101078.09;5013199;28;20135;-71
2022/06/22 03:52:05;;;;;;;15.80;10.20;;;;;;;13.59;100.00;101076.00;5013179;28;20072;-70
2022/06/22 03:54:44;;;;;;;15.80;10.00;;;;;;;13.58;100.00;101079.78;5012964;28;20065;-70
2022/06/22 03:57:14;;;;;;;18.10;10.65;;;;;;;13.61;100.00;101082.00;4995472;28;20029;-71
2022/06/22 03:59:42;;;;;;;15.13;10.15;;;;;;;13.63;100.00;101083.44;5012821;28;20061;-71
2022/06/22 04:02:08;;;;;;;18.13;10.52;;;;;;;13.65;100.00;101086.72;5027311;28;20049;-71
2022/06/22 04:04:34;;;;;;;15.65;10.32;;;;;;;13.73;100.00;101082.00;5030456;28;20040;-71
2022/06/22 04:06:59;;;;;;;15.43;10.88;;;;;;;13.76;100.00;101065.19;5032663;28;20021;-71
2022/06/22 04:09:28;;;;;;;14.68;10.68;;;;;;;13.76;100.00;101070.63;5032260;28;20112;-71
2022/06/22 04:12:04;;;;;;;14.70;10.60;;;;;;;13.71;100.00;101063.19;5014630;28;20031;-71
2022/06/22 04:15:01;;;;;;;18.35;10.90;;;;;;;13.82;100.00;101069.66;5015223;28;20037;-71
2022/06/22 04:17:34;;;;;;;16.17;11.00;;;;;;;13.80;100.00;101077.25;5011988;28;20404;-71
2022/06/22 04:20:14;;;;;;;16.00;11.63;;;;;;;13.83;100.00;101082.19;5012772;28;20061;-71
2022/06/22 04:22:42;;;;;;;17.02;11.13;;;;;;;13.85;100.00;101080.06;4996305;28;20034;-71
2022/06/22 04:25:28;;;;;;;17.48;11.25;;;;;;;13.93;100.00;101076.94;5030366;28;20040;-71
2022/06/22 04:27:56;;;;;;;23.98;11.23;;;;;;;13.94;100.00;101086.75;5032118;28;20067;-71
2022/06/22 04:30:26;;;;;;;19.52;11.02;;;;;;;13.97;100.00;101083.56;5032388;28;20030;-71
2022/06/22 04:33:14;;;;;;;17.27;10.98;;;;;;;14.05;100.00;101090.50;5030826;28;20037;-70
2022/06/22 04:36:02;;;;;;;23.10;11.35;;;;;;;14.12;100.00;101095.81;5031999;28;20092;-71
2022/06/22 04:38:46;;;;;;;16.40;11.77;;;;;;;14.07;100.00;101093.84;5032363;28;20120;-71
2022/06/22 04:41:31;;;;;;;20.02;12.18;;;;;;;14.13;100.00;101100.19;5032517;28;20372;-71
2022/06/22 04:44:01;;;;;;;15.80;11.75;;;;;;;14.12;100.00;101107.53;5019557;28;20040;-71
2022/06/22 04:46:31;;;;;;;20.40;12.57;;;;;;;14.15;100.00;101111.66;5012812;28;20038;-71
2022/06/22 04:49:01;;;;;;;22.45;12.48;;;;;;;14.13;100.00;101102.91;5011017;28;20061;-71
2022/06/22 04:51:32;;;;;;;16.35;11.80;;;;;;;14.14;100.00;101105.38;5012523;28;20034;-71
2022/06/22 04:54:05;;;;;;;20.27;13.13;;;;;;;14.15;100.00;101106.22;5012149;28;20477;-71
2022/06/22 04:56:41;;;;;;;19.00;12.85;;;;;;;14.17;100.00;101104.06;5012340;28;20026;-71
2022/06/22 04:59:10;;;;;;;16.20;12.20;;;;;;;14.16;100.00;101102.41;5011072;28;20027;-71
2022/06/22 05:01:45;;;;;;;17.40;11.55;;;;;;;14.23;100.00;101105.00;5025537;28;20520;-71
2022/06/22 05:04:21;;;;;;;18.27;12.45;;;;;;;14.27;100.00;101111.63;5029753;28;20033;-71
2022/06/22 05:07:02;;;;;;;18.77;12.23;;;;;;;14.32;100.00;101117.97;5012163;28;20042;-71
2022/06/22 05:10:05;;;;;;;19.58;12.65;;;;;;;14.43;100.00;101124.47;5023344;28;20032;-71
2022/06/22 05:12:41;;;;;;;20.00;11.95;;;;;;;14.42;100.00;101122.78;4980465;28;20088;-71
2022/06/22 05:15:16;;;;;;;17.48;11.63;;;;;;;14.48;100.00;101115.56;5027216;28;20031;-71
2022/06/22 05:17:41;;;;;;;20.00;12.82;;;;;;;14.53;100.00;101119.16;5010079;28;20041;-71
2022/06/22 05:20:18;;;;;;;16.58;12.80;;;;;;;14.60;100.00;101118.19;5015620;28;20032;-71
2022/06/22 05:22:44;;;;;;;22.42;13.23;;;;;;;14.69;100.00;101117.59;5035477;28;20033;-71
2022/06/22 05:25:12;;;;;;;21.63;13.40;;;;;;;14.74;100.00;101110.59;5033356;28;20033;-71
2022/06/22 05:28:11;;;;;;;20.17;13.15;;;;;;;14.84;100.00;101125.19;5035333;28;20041;-71
2022/06/22 05:30:46;;;;;;;17.40;13.60;;;;;;;14.81;100.00;101120.25;5034147;28;20030;-71
2022/06/22 05:33:17;;;;;;;20.05;13.80;;;;;;;14.83;100.00;101123.53;5035669;28;20207;-70
2022/06/22 05:35:48;;;;;;;24.02;14.07;;;;;;;14.83;100.00;101122.72;5017492;28;20064;-71
2022/06/22 05:38:17;;;;;;;19.30;13.30;;;;;;;14.87;100.00;101129.31;5014422;28;20045;-71
2022/06/22 05:40:45;;;;;;;20.00;13.43;;;;;;;14.88;100.00;101125.53;5015379;28;20032;-71
2022/06/22 05:43:10;;;;;;;20.77;13.80;;;;;;;14.94;100.00;101134.59;5014217;28;20072;-71
2022/06/22 05:45:45;;;;;;;19.95;12.88;;;;;;;14.94;100.00;101129.16;5014976;28;20058;-71
2022/06/22 05:48:19;;;;;;;17.42;12.63;;;;;;;15.01;100.00;101140.72;5015311;28;20037;-71
2022/06/22 05:50:51;;;;;;;18.17;12.48;;;;;;;15.02;100.00;101145.94;5034779;28;20043;-71
2022/06/22 05:53:23;;;;;;;18.88;13.35;;;;;;;15.09;100.00;101147.66;5035101;28;20029;-71
2022/06/22 05:55:55;;;;;;;21.35;13.13;;;;;;;15.16;100.00;101161.97;5034846;28;20116;-71
2022/06/22 05:58:30;;;;;;;15.13;12.70;;;;;;;15.18;100.00;101160.63;5033942;28;20033;-70
2022/06/22 06:00:58;;;;;;;18.58;13.32;;;;;;;15.26;100.00;101161.28;5011829;28;20477;-71
2022/06/22 06:03:40;;;;;;;20.23;12.77;;;;;;;15.34;100.00;101169.03;5054471;28;20033;-71
2022/06/22 06:06:13;;;;;;;20.45;13.27;;;;;;;15.29;99.56;101158.88;5045549;28;20021;-71
2022/06/22 06:08:43;;;;;;;22.17;12.35;;;;;;;15.41;99.46;101165.09;5033707;28;20033;-71
2022/06/22 06:11:15;;;;;;;18.33;12.45;;;;;;;15.44;98.70;101165.66;5034996;28;20025;-71
2022/06/22 06:13:46;;;;;;;20.58;12.93;;;;;;;15.49;99.32;101158.38;5034473;28;20113;-71
2022/06/22 06:16:23;;;;;;;21.67;12.80;;;;;;;15.54;99.43;101158.44;5027343;28;20036;-71
2022/06/22 06:18:48;;;;;;;19.38;12.07;;;;;;;15.60;97.49;101151.16;5013386;28;20084;-71
2022/06/22 06:21:18;;;;;;;20.67;12.20;;;;;;;15.67;98.15;101159.16;5013741;28;20041;-71
2022/06/22 06:23:52;;;;;;;19.65;12.57;;;;;;;15.71;97.05;101158.41;5014470;28;20086;-71
2022/06/22 06:30:02;;;;;;;20.40;12.85;;;;;;;15.94;96.46;101164.72;5033464;28;20074;-71
2022/06/22 06:32:52;;;;;;;21.52;12.82;;;;;;;16.05;95.27;101162.97;5015614;28;20025;-72
2022/06/22 06:35:35;;;;;;;19.03;12.67;;;;;;;16.11;94.29;101165.50;5014582;28;20064;-71
2022/06/22 06:38:11;;;;;;;19.98;12.35;;;;;;;16.17;92.63;101171.00;5014388;28;20335;-71
2022/06/22 06:41:17;;;;;;;19.10;12.07;;;;;;;16.24;92.35;101163.47;5014459;28;20384;-71
2022/06/22 06:44:02;;;;;;;16.90;11.77;;;;;;;16.28;89.85;101159.97;4997593;28;20050;-71
2022/06/22 06:46:33;;;;;;;18.88;11.70;;;;;;;16.30;89.42;101149.63;5014382;28;20112;-71
2022/06/22 06:49:07;;;;;;;20.60;11.73;;;;;;;16.38;90.57;101142.88;5013990;28;20037;-71
2022/06/22 06:51:35;;;;;;;21.35;12.82;;;;;;;16.44;89.86;101146.47;5014180;28;20108;-71
2022/06/22 06:54:10;;;;;;;16.15;11.65;;;;;;;16.53;89.23;101138.63;5013995;28;20034;-72
2022/06/22 06:56:46;;;;;;;19.05;12.35;;;;;;;16.57;87.44;101134.31;5014327;28;20113;-72
2022/06/22 06:59:16;;;;;;;16.98;12.45;;;;;;;16.60;88.34;101134.63;5014054;28;20029;-71
2022/06/22 07:01:44;;;;;;;19.20;12.52;;;;;;;16.62;87.60;101134.34;5023296;28;20090;-71
2022/06/22 07:04:21;;;;;;;16.42;12.20;;;;;;;16.66;88.08;101147.25;5053704;28;20036;-71
2022/06/22 07:06:46;;;;;;;19.35;12.40;;;;;;;16.71;87.18;101134.72;5053204;28;20061;-71
2022/06/22 07:09:16;;;;;;;18.45;12.00;;;;;;;16.75;88.27;101131.19;5030704;28;20073;-71
2022/06/22 07:11:48;;;;;;;18.92;13.00;;;;;;;16.83;87.65;101132.63;5033606;28;20457;-71
2022/06/22 07:14:23;;;;;;;17.00;12.73;;;;;;;16.91;87.50;101134.94;5032208;28;20036;-71
2022/06/22 07:16:52;;;;;;;15.65;11.20;;;;;;;17.03;86.94;101136.66;5033289;28;20025;-71
2022/06/22 07:19:42;;;;;;;22.88;12.63;;;;;;;17.10;85.92;101129.88;5029339;28;20038;-71
2022/06/22 07:22:18;;;;;;;17.55;10.95;;;;;;;17.13;84.17;101129.34;5013231;28;20029;-71
2022/06/22 07:24:50;;;;;;;18.02;10.57;;;;;;;17.17;82.34;101126.94;5013539;28;20453;-71
2022/06/22 07:27:27;;;;;;;15.25;10.65;;;;;;;17.26;82.48;101125.34;5013451;28;20061;-71
2022/06/22 07:30:21;;;;;;;19.38;12.07;;;;;;;17.35;82.90;101120.22;5013202;28;20469;-71
2022/06/22 07:32:59;;;;;;;15.65;11.50;;;;;;;17.40;82.35;101109.28;5030456;28;20417;-71
2022/06/22 07:35:34;;;;;;;16.77;11.90;;;;;;;17.46;81.37;101110.16;5033149;28;20034;-70
2022/06/22 07:38:18;;;;;;;20.13;11.82;;;;;;;17.49;80.64;101107.69;5016299;28;20401;-70
2022/06/22 07:41:18;;;;;;;14.73;11.20;;;;;;;17.53;81.56;101106.09;5013386;28;20489;-70
2022/06/22 07:43:32;;;;;;;14.63;10.40;;;;;;;17.59;79.54;101117.06;5012926;28;20052;-72
2022/06/22 07:45:58;;;;;;;18.05;10.38;;;;;;;17.64;78.19;101125.31;5013113;28;20068;-71
2022/06/22 07:48:24;;;;;;;19.30;9.95;;;;;;;17.68;78.05;101126.44;5015185;28;20429;-71
2022/06/22 07:50:55;;;;;;;15.88;10.02;;;;;;;17.69;78.83;101128.06;5032469;28;20095;-71
2022/06/22 07:53:39;;;;;;;15.32;10.80;;;;;;;17.76;78.69;101120.44;5032903;28;20075;-71
2022/06/22 07:56:33;;;;;;;19.83;10.77;;;;;;;17.85;77.84;101118.81;5024476;28;20042;-71
2022/06/22 07:59:05;;;;;;;16.73;9.60;;;;;;;17.91;77.53;101118.91;5012823;28;20025;-71
2022/06/22 08:01:40;;;;;;;20.80;10.60;;;;;;;17.95;76.30;101117.25;5024568;28;20049;-71
2022/06/22 08:04:21;;;;;;;13.55;9.57;;;;;;;18.00;75.29;101117.28;5050842;28;20384;-71
2022/06/22 08:06:57;;;;;;;15.32;10.23;;;;;;;18.01;76.51;101119.75;5016206;28;20112;-71
2022/06/22 08:09:44;;;;;;;19.45;11.30;;;;;;;18.04;77.03;101123.84;5011717;28;20482;-70
2022/06/22 08:12:22;;;;;;;16.00;12.35;;;;;;;18.06;78.29;101127.16;5012780;28;20060;-70
2022/06/22 08:14:52;;;;;;;16.73;11.65;;;;;;;18.12;78.22;101125.28;5012289;28;20474;-71
2022/06/22 08:17:29;;;;;;;19.08;11.15;;;;;;;18.19;77.33;101125.81;5012863;28;20034;-71
2022/06/22 08:19:54;;;;;;;17.52;10.82;;;;;;;18.20;75.47;101125.53;5012587;28;20026;-70
2022/06/22 08:22:20;;;;;;;18.48;10.75;;;;;;;18.34;77.09;101139.59;5012771;28;20022;-71
2022/06/22 08:24:48;;;;;;;15.23;10.63;;;;;;;18.34;76.08;101133.25;5011235;28;20077;-71
2022/06/22 08:27:18;;;;;;;18.02;10.20;;;;;;;18.38;75.14;101140.66;5012733;28;20037;-71
2022/06/22 08:29:45;;;;;;;17.52;10.45;;;;;;;18.43;75.44;101142.59;5024470;28;20041;-71
2022/06/22 08:32:21;;;;;;;15.05;10.07;;;;;;;18.54;75.37;101133.31;5030229;28;20034;-70
2022/06/22 08:34:55;;;;;;;15.75;9.85;;;;;;;18.63;74.41;101143.72;5031253;28;20037;-71
2022/06/22 08:37:35;;;;;;;13.15;8.32;;;;;;;18.80;72.46;101146.22;5012258;28;20092;-71
2022/06/22 08:40:32;;;;;;;10.15;7.50;;;;;;;18.86;71.77;101142.41;5012358;28;20109;-71
2022/06/22 08:43:00;;;;;;;11.98;7.75;;;;;;;18.93;69.85;101141.06;5010097;28;20041;-71
2022/06/22 08:45:54;;;;;;;13.18;7.30;;;;;;;19.07;69.90;101137.75;5016587;28;20043;-72
2022/06/22 08:48:31;;;;;;;12.50;6.78;;;;;;;19.16;69.16;101144.34;5023817;28;20593;-71
2022/06/22 08:51:15;;;;;;;10.07;7.07;;;;;;;19.26;67.91;101138.84;5046512;28;20040;-72
2022/06/22 08:54:01;;;;;;;10.77;6.43;;;;;;;19.33;67.77;101141.28;5042312;28;20064;-72
2022/06/22 08:57:11;;;;;;;10.45;5.45;;;;;;;19.39;67.19;101133.88;5028337;28;20088;-72
2022/06/22 08:59:48;;;;;;;11.02;4.95;;;;;;;19.50;64.46;101127.25;4993534;28;20088;-71
2022/06/22 09:02:35;;;;;;;15.48;4.43;;;;;;;19.60;63.78;101116.25;5039015;28;20056;-70
2022/06/22 09:05:22;;;;;;;8.25;3.60;;;;;;;19.74;63.87;101113.72;5055768;28;20029;-70
2022/06/22 09:08:06;;;;;;;8.85;4.30;;;;;;;19.84;60.81;101121.16;5018473;28;20042;-70
2022/06/22 09:11:06;;;;;;;7.10;3.90;;;;;;;19.93;62.30;101130.44;5016268;28;20085;-72
2022/06/22 09:13:38;;;;;;;6.82;3.60;;;;;;;19.94;59.96;101128.50;5020200;28;20036;-72
2022/06/22 09:16:25;;;;;;;9.77;3.95;;;;;;;19.99;61.45;101131.25;5034592;28;20034;-71
2022/06/22 09:19:06;;;;;;;6.07;3.97;;;;;;;20.07;60.62;101135.31;5034283;28;20033;-73
2022/06/22 09:21:51;;;;;;;8.20;3.75;;;;;;;20.16;61.58;101150.13;5017551;28;20071;-72
2022/06/22 09:24:39;;;;;;;12.00;3.70;;;;;;;20.17;60.11;101140.78;5032085;28;20025;-72
2022/06/22 09:27:15;;;;;;;11.40;4.13;;;;;;;20.11;58.28;101144.63;5033606;28;20033;-71
2022/06/22 09:30:20;;;;;;;9.25;3.95;;;;;;;20.15;58.95;101149.28;5024897;28;20075;-71
2022/06/22 09:33:04;;;;;;;11.82;4.05;;;;;;;20.17;57.36;101143.53;5029838;28;20108;-72
2022/06/22 09:35:43;;;;;;;9.73;4.20;;;;;;;20.22;58.37;101148.97;5035452;28;20029;-80
2022/06/22 09:38:17;;;;;;;8.00;3.85;;;;;;;20.33;56.94;101156.06;5034941;28;20132;-76
2022/06/22 09:40:55;;;;;;;9.52;3.92;;;;;;;20.45;56.83;101149.41;5016762;28;20092;-72
2022/06/22 09:43:40;;;;;;;10.70;4.20;;;;;;;20.53;57.23;101159.78;5034977;28;20389;-70
2022/06/22 09:46:22;;;;;;;8.23;3.97;;;;;;;20.56;56.81;101153.72;5028242;28;20018;-73
2022/06/22 09:48:53;;;;;;;;;;;;;;;20.62;58.04;101152.59;5035653;28;20112;-73
2022/06/22 09:51:39;;;;;;;4.82;2.75;;;;;;;20.69;54.81;101149.56;5022999;28;19935;-70
2022/06/22 09:57:38;;;;;;;8.07;2.85;;;;;;;20.86;52.99;101146.38;4954612;29;20042;-72
2022/06/22 10:00:18;;;;;;;8.02;2.92;;;;;;;20.89;53.61;101138.41;5009830;28;20384;-71
2022/06/22 10:03:07;;;;;;;6.22;2.90;;;;;;;21.00;54.60;101141.03;5033691;28;20112;-70
2022/06/22 10:05:51;;;;;;;8.70;3.10;;;;;;;21.10;54.64;101135.47;5034216;28;20033;-68
2022/06/22 10:08:37;;;;;;;8.88;3.20;;;;;;;21.13;52.48;101136.81;5030659;28;20392;-69
2022/06/22 10:11:31;;;;;;;7.07;3.10;;;;;;;21.16;53.37;101134.28;5035246;28;20527;-71
2022/06/22 10:14:31;;;;;;;8.02;3.40;;;;;;;21.17;51.49;101126.88;4999627;28;20374;-72
2022/06/22 10:17:17;;;;;;;7.68;2.75;;;;;;;21.22;51.94;101124.06;5034313;28;20037;-72
2022/06/22 10:20:01;;;;;;;7.57;2.65;;;;;;;21.38;50.85;101120.06;5033646;28;20108;-72
2022/06/22 10:22:41;;;;;;;9.10;2.47;;;;;;;21.50;50.78;101116.09;5031467;28;20037;-71
2022/06/22 10:25:25;;;;;;;5.95;2.63;;;;;;;21.55;51.21;101111.34;5025938;28;20053;-71
2022/06/22 10:28:28;;;;;;;10.70;2.38;;;;;;;21.68;51.12;101123.63;5017357;28;20037;-71
2022/06/22 10:31:11;;;;;;;7.57;2.30;;;;;;;21.74;48.39;101121.59;5021236;28;20676;-72
2022/06/22 10:34:14;;;;;;;9.60;2.63;;;;;;;21.86;50.85;101118.44;5033129;28;20384;-73
2022/06/22 10:37:12;;;;;;;8.68;3.20;;;;;;;21.88;50.09;101110.72;5033636;28;20053;-71
2022/06/22 10:40:03;;;;;;;6.18;2.40;;;;;;;21.91;47.19;101115.63;5033625;28;20427;-72
2022/06/22 10:45:35;;;;;;;7.65;2.75;;;;;;;21.95;48.11;101111.16;5033704;28;20072;-72
2022/06/22 10:48:39;;;;;;;6.32;2.70;;;;;;;22.00;48.02;101107.53;5032897;28;20025;-70
2022/06/22 10:51:29;;;;;;;9.10;2.97;;;;;;;22.07;48.66;101113.47;5028667;28;20041;-71
2022/06/22 10:54:19;;;;;;;10.35;2.85;;;;;;;22.16;48.14;101108.94;5034019;28;20033;-72
2022/06/22 10:56:56;;;;;;;9.38;3.40;;;;;;;22.27;46.92;101104.13;5032958;28;20097;-71
2022/06/22 10:59:48;;;;;;;6.38;2.30;;;;;;;22.34;47.72;101107.31;5032613;28;20507;-72
2022/06/22 11:03:01;;;;;;;8.65;2.40;;;;;;;22.45;48.72;101103.31;5038977;28;20056;-71
2022/06/22 11:06:00;;;;;;;7.68;3.30;;;;;;;22.61;46.41;101106.63;5035351;28;20041;-70
2022/06/22 11:08:43;;;;;;;4.75;2.53;;;;;;;22.63;42.55;101114.59;5053637;28;20079;-71
2022/06/22 11:11:24;;;;;;;5.25;2.40;;;;;;;22.79;43.88;101107.72;5034465;28;20032;-70
2022/06/22 11:14:28;;;;;;;6.30;2.45;;;;;;;22.78;45.15;101105.28;5013934;28;20057;-71
2022/06/22 11:17:12;;;;;;;7.80;2.20;;;;;;;22.88;41.38;101105.09;5013449;28;20034;-71
2022/06/22 11:20:27;;;;;;;4.93;2.30;;;;;;;22.91;44.13;101103.69;5015290;28;20045;-70
2022/06/22 11:22:55;;;;;;;7.00;2.20;;;;;;;22.91;42.76;101093.47;4991666;28;20034;-72
2022/06/22 11:31:51;;;;;;;5.57;2.47;;;;;;;23.23;44.34;101094.56;5013581;28;20048;-72
2022/06/22 11:34:22;;;;;;;6.43;2.90;;;;;;;23.22;43.36;101106.75;5026260;28;20080;-72
2022/06/22 11:37:03;;;;;;;7.10;2.63;;;;;;;23.33;45.12;101090.81;5012795;28;20088;-71
2022/06/22 11:39:56;;;;;;;9.07;3.00;;;;;;;23.42;42.64;101107.50;5021308;28;20033;-70
2022/06/22 11:42:59;;;;;;;7.68;2.65;;;;;;;23.53;44.20;101115.25;5032960;28;20385;-72
2022/06/22 11:45:54;;;;;;;6.18;2.47;;;;;;;23.63;43.16;101121.72;5032762;28;20029;-71
2022/06/22 11:49:01;;;;;;;5.55;2.22;;;;;;;23.65;41.71;101111.19;5015003;28;20037;-71
2022/06/22 11:51:33;;;;;;;7.30;2.30;;;;;;;23.82;41.67;101108.59;4971569;28;20039;-71
2022/06/22 11:54:17;;;;;;;4.68;1.95;;;;;;;23.94;40.72;101101.75;5006213;28;20066;-71
2022/06/22 11:56:51;;;;;;;9.98;2.38;;;;;;;23.93;40.17;101112.00;5029514;28;20033;-71
2022/06/22 11:59:23;;;;;;;6.35;2.20;;;;;;;24.01;40.97;101102.97;5025696;28;20050;-71
2022/06/22 12:02:03;;;;;;;8.52;2.40;;;;;;;24.01;41.09;101102.16;5024039;28;20045;-70
2022/06/22 12:04:37;;;;;;;4.18;2.17;;;;;;;24.14;42.08;101106.84;5052178;28;20032;-71
2022/06/22 12:07:36;;;;;;;9.50;2.00;;;;;;;24.31;41.50;101100.66;5052511;28;20025;-72
2022/06/22 12:10:23;;;;;;;6.65;2.30;;;;;;;24.44;41.00;101103.69;5026395;28;20037;-70
2022/06/22 12:13:06;;;;;;;3.63;2.03;;;;;;;24.52;41.30;101100.19;5012743;28;20397;-72
2022/06/22 12:16:03;;;;;;;11.73;2.55;;;;;;;24.56;41.93;101102.00;5012712;28;20026;-72
2022/06/22 12:18:41;;;;;;;7.60;2.00;;;;;;;24.67;38.66;101091.53;5013591;28;20530;-72
2022/06/22 12:21:12;;;;;;;6.10;2.13;;;;;;;24.84;39.77;101081.72;5021291;28;20036;-71
2022/06/22 12:23:44;;;;;;;11.05;1.85;;;;;;;24.92;40.70;101070.66;5032278;28;20026;-70
2022/06/22 12:26:28;;;;;;;7.30;2.10;;;;;;;25.03;40.59;101079.53;5032047;28;20025;-71